createdAt,value
2018-11-26T00:01:28.813Z,15.93
2018-11-26T00:03:57.326Z,13.73
2018-11-26T00:06:26.134Z,14.87
2018-11-26T00:08:54.622Z,16.00
2018-11-26T00:11:30.801Z,15.47
2018-11-26T00:13:59.282Z,14.40
2018-11-26T00:16:27.882Z,15.40
2018-11-26T00:18:56.441Z,16.60
2018-11-26T00:21:24.985Z,16.40
2018-11-26T00:23:53.610Z,16.23
2018-11-26T00:26:22.125Z,16.50
2018-11-26T00:28:50.853Z,16.40
2018-11-26T00:31:20.593Z,15.53
2018-11-26T00:33:49.527Z,14.93
2018-11-26T00:36:18.144Z,16.00
2018-11-26T00:38:46.864Z,16.20
2018-11-26T00:41:15.378Z,16.87
2018-11-26T00:43:43.845Z,15.73
2018-11-26T00:46:12.379Z,17.17
2018-11-26T00:48:40.825Z,16.80
2018-11-26T00:51:09.364Z,16.70
2018-11-26T00:53:37.812Z,17.10
2018-11-26T00:56:06.544Z,16.23
2018-11-26T00:58:34.977Z,15.40
2018-11-26T01:01:03.473Z,15.53
2018-11-26T01:03:31.890Z,15.27
2018-11-26T01:06:00.337Z,15.73
2018-11-26T01:08:28.829Z,16.33
2018-11-26T01:10:57.312Z,14.70
2018-11-26T01:13:26.623Z,15.87
2018-11-26T01:15:55.062Z,15.87
2018-11-26T01:18:23.524Z,16.17
2018-11-26T01:20:52.185Z,15.57
2018-11-26T01:23:20.632Z,15.47
2018-11-26T01:25:49.089Z,16.97
2018-11-26T01:28:17.552Z,15.13
2018-11-26T01:30:46.096Z,15.57
2018-11-26T01:33:14.628Z,15.53
2018-11-26T01:35:43.154Z,15.50
2018-11-26T01:38:11.615Z,15.53
2018-11-26T01:40:45.369Z,15.03
2018-11-26T01:43:13.845Z,16.10
2018-11-26T01:45:42.324Z,16.57
2018-11-26T01:48:10.812Z,16.50
2018-11-26T01:50:39.278Z,16.23
2018-11-26T01:53:08.062Z,15.70
2018-11-26T01:55:36.613Z,15.83
2018-11-26T01:58:05.142Z,16.33
2018-11-26T02:00:40.195Z,16.07
2018-11-26T02:03:20.257Z,16.40
2018-11-26T02:05:48.720Z,16.87
2018-11-26T02:08:18.101Z,16.40
2018-11-26T02:10:46.647Z,15.37
2018-11-26T02:13:15.136Z,16.33
2018-11-26T02:15:43.626Z,16.00
2018-11-26T02:18:12.275Z,15.37
2018-11-26T02:20:40.742Z,15.07
2018-11-26T02:23:09.218Z,15.10
2018-11-26T02:25:37.758Z,15.57
2018-11-26T02:28:06.832Z,16.00
2018-11-26T02:30:35.388Z,16.53
2018-11-26T02:33:03.868Z,14.83
2018-11-26T02:35:32.431Z,14.47
2018-11-26T02:38:00.911Z,16.07
2018-11-26T02:40:31.255Z,16.20
2018-11-26T02:42:59.844Z,14.97
2018-11-26T02:45:28.646Z,16.03
2018-11-26T02:47:57.167Z,15.33
2018-11-26T02:50:25.673Z,15.70
2018-11-26T02:52:54.138Z,16.10
2018-11-26T02:55:22.666Z,13.80
2018-11-26T02:57:51.111Z,13.63
2018-11-26T03:00:19.602Z,15.27
2018-11-26T03:02:48.128Z,15.07
2018-11-26T03:05:28.745Z,16.13
2018-11-26T03:07:57.169Z,12.40
2018-11-26T03:10:27.642Z,12.57
2018-11-26T03:12:56.306Z,13.50
2018-11-26T03:15:24.765Z,15.27
2018-11-26T03:17:53.225Z,15.30
2018-11-26T03:20:21.716Z,15.47
2018-11-26T03:22:50.152Z,15.40
2018-11-26T03:25:18.608Z,14.87
2018-11-26T03:27:47.101Z,15.27
2018-11-26T03:30:18.357Z,15.33
2018-11-26T03:32:46.842Z,15.40
2018-11-26T03:35:15.273Z,14.57
2018-11-26T03:37:43.773Z,14.87
2018-11-26T03:40:13.220Z,15.40
2018-11-26T03:42:42.206Z,15.47
2018-11-26T03:45:14.920Z,15.50
2018-11-26T03:47:43.379Z,15.40
2018-11-26T03:50:12.878Z,15.93
2018-11-26T03:52:42.537Z,16.27
2018-11-26T03:55:11.653Z,15.23
2018-11-26T03:57:40.152Z,15.17
2018-11-26T04:00:12.850Z,15.40
2018-11-26T04:02:41.472Z,15.70
2018-11-26T04:05:10.439Z,16.17
2018-11-26T04:07:39.043Z,16.43
2018-11-26T04:10:09.185Z,16.00
2018-11-26T04:12:37.667Z,15.70
2018-11-26T04:15:07.802Z,16.67
2018-11-26T04:17:36.265Z,17.80
2018-11-26T04:20:05.082Z,17.03
2018-11-26T04:22:33.588Z,16.40
2018-11-26T04:25:02.075Z,18.17
2018-11-26T04:27:30.537Z,17.30
2018-11-26T04:29:58.961Z,16.37
2018-11-26T04:32:27.557Z,17.53
2018-11-26T04:34:56.153Z,16.43
2018-11-26T04:37:24.748Z,16.70
2018-11-26T04:39:53.330Z,16.40
2018-11-26T04:42:23.002Z,15.73
2018-11-26T04:44:51.577Z,16.63
2018-11-26T04:47:20.078Z,16.43
2018-11-26T04:49:48.842Z,17.17
2018-11-26T04:52:17.295Z,17.17
2018-11-26T04:54:45.761Z,16.83
2018-11-26T04:57:14.233Z,17.80
2018-11-26T04:59:42.817Z,17.10
2018-11-26T05:02:11.350Z,17.90
2018-11-26T05:04:40.022Z,16.73
2018-11-26T05:07:08.610Z,17.50
2018-11-26T05:09:37.201Z,19.30
2018-11-26T05:12:06.000Z,22.77
2018-11-26T05:14:34.514Z,25.23
2018-11-26T05:17:03.020Z,23.40
2018-11-26T05:19:31.500Z,34.00
2018-11-26T05:21:59.975Z,20.07
2018-11-26T05:24:28.431Z,20.10
2018-11-26T05:26:56.926Z,19.90
2018-11-26T05:29:25.405Z,19.27
2018-11-26T05:31:53.901Z,18.87
2018-11-26T05:34:22.365Z,18.80
2018-11-26T05:36:50.874Z,18.33
2018-11-26T05:39:19.371Z,19.63
2018-11-26T05:41:48.126Z,18.33
2018-11-26T05:44:16.715Z,19.33
2018-11-26T05:46:45.173Z,20.00
2018-11-26T05:49:13.633Z,21.27
2018-11-26T05:51:42.150Z,22.20
2018-11-26T05:54:10.630Z,20.50
2018-11-26T05:56:39.105Z,20.00
2018-11-26T05:59:07.727Z,19.53
2018-11-26T06:01:36.230Z,19.10
2018-11-26T06:04:05.749Z,18.97
2018-11-26T06:06:34.257Z,18.37
2018-11-26T06:09:02.870Z,18.47
2018-11-26T06:11:31.407Z,18.70
2018-11-26T06:13:59.888Z,19.63
2018-11-26T06:16:28.365Z,19.40
2018-11-26T06:18:56.808Z,19.13
2018-11-26T06:21:25.886Z,17.73
2018-11-26T06:23:54.339Z,19.80
2018-11-26T06:26:22.794Z,19.53
2018-11-26T06:28:51.301Z,19.27
2018-11-26T06:31:19.747Z,19.97
2018-11-26T06:33:48.620Z,19.57
2018-11-26T06:36:17.184Z,20.17
2018-11-26T06:38:45.669Z,20.43
2018-11-26T06:41:14.148Z,20.13
2018-11-26T06:43:42.637Z,19.93
2018-11-26T06:46:11.083Z,18.47
2018-11-26T06:48:39.512Z,20.13
2018-11-26T06:51:08.624Z,19.07
2018-11-26T06:53:37.058Z,19.77
2018-11-26T06:56:05.896Z,19.33
2018-11-26T06:58:34.323Z,20.20
2018-11-26T07:01:02.794Z,20.43
2018-11-26T07:03:31.260Z,18.83
2018-11-26T07:05:59.694Z,20.27
2018-11-26T07:08:28.130Z,17.93
2018-11-26T07:10:56.598Z,20.40
2018-11-26T07:13:25.068Z,20.50
2018-11-26T07:15:53.515Z,19.60
2018-11-26T07:18:22.048Z,18.97
2018-11-26T07:20:50.685Z,19.97
2018-11-26T07:23:19.179Z,20.37
2018-11-26T07:25:47.614Z,19.80
2018-11-26T07:28:16.036Z,20.83
2018-11-26T07:30:44.550Z,20.50
2018-11-26T07:33:13.494Z,20.93
2018-11-26T07:35:41.964Z,21.03
2018-11-26T07:38:10.380Z,20.10
2018-11-26T07:40:38.856Z,20.07
2018-11-26T07:43:11.080Z,21.70
2018-11-26T07:45:40.048Z,20.87
2018-11-26T07:48:09.713Z,21.87
2018-11-26T07:50:38.329Z,21.40
2018-11-26T07:53:08.395Z,23.23
2018-11-26T07:55:37.097Z,21.63
2018-11-26T07:58:05.686Z,21.97
2018-11-26T08:00:34.115Z,24.30
2018-11-26T08:03:02.565Z,22.37
2018-11-26T08:05:31.023Z,23.13
2018-11-26T08:07:59.618Z,23.80
2018-11-26T08:10:28.048Z,22.70
2018-11-26T08:12:56.498Z,21.57
2018-11-26T08:15:27.166Z,24.20
2018-11-26T08:17:55.741Z,23.37
2018-11-26T08:20:24.274Z,23.70
2018-11-26T08:22:52.733Z,24.73
2018-11-26T08:25:22.276Z,25.50
2018-11-26T08:27:51.397Z,23.33
2018-11-26T08:30:21.859Z,24.43
2018-11-26T08:32:52.493Z,24.33
2018-11-26T08:35:20.934Z,22.77
2018-11-26T08:37:54.659Z,23.73
2018-11-26T08:40:31.157Z,23.37
2018-11-26T08:43:15.284Z,24.20
2018-11-26T08:45:52.835Z,22.20
2018-11-26T08:48:26.709Z,22.53
2018-11-26T08:50:56.342Z,23.17
2018-11-26T08:53:24.793Z,22.40
2018-11-26T08:55:53.397Z,23.20
2018-11-26T08:58:21.801Z,21.27
2018-11-26T09:00:55.652Z,23.27
2018-11-26T09:03:28.344Z,22.50
2018-11-26T09:06:01.759Z,22.50
2018-11-26T09:08:31.204Z,23.73
2018-11-26T09:11:00.657Z,24.93
2018-11-26T09:13:29.193Z,23.37
2018-11-26T09:15:57.638Z,23.83
2018-11-26T09:18:26.115Z,23.73
2018-11-26T09:20:55.787Z,22.67
2018-11-26T09:23:24.364Z,22.47
2018-11-26T09:25:52.890Z,23.53
2018-11-26T09:28:21.391Z,21.40
2018-11-26T09:30:49.841Z,22.87
2018-11-26T09:33:18.394Z,22.63
2018-11-26T09:35:46.913Z,21.57
2018-11-26T09:38:15.433Z,21.77
2018-11-26T09:40:44.946Z,22.70
2018-11-26T09:43:13.542Z,22.57
2018-11-26T09:45:42.025Z,23.90
2018-11-26T09:48:10.533Z,22.30
2018-11-26T09:50:39.049Z,21.67
2018-11-26T09:53:07.683Z,22.93
2018-11-26T09:55:36.204Z,23.07
2018-11-26T09:58:05.204Z,21.73
2018-11-26T10:00:33.721Z,22.90
2018-11-26T10:03:02.243Z,22.43
2018-11-26T10:05:30.721Z,22.07
2018-11-26T10:07:59.217Z,22.53
2018-11-26T10:10:27.719Z,21.73
2018-11-26T10:12:56.182Z,23.70
2018-11-26T10:15:25.742Z,21.27
2018-11-26T10:17:54.169Z,22.57
2018-11-26T10:20:23.429Z,21.07
2018-11-26T10:22:53.331Z,21.03
2018-11-26T10:25:22.991Z,20.93
2018-11-26T10:27:52.166Z,22.27
2018-11-26T10:30:23.435Z,22.17
2018-11-26T10:32:52.791Z,21.90
2018-11-26T10:35:21.743Z,21.63
2018-11-26T10:37:50.276Z,20.83
2018-11-26T10:40:23.907Z,21.30
2018-11-26T10:42:52.402Z,20.67
2018-11-26T10:45:21.989Z,21.40
2018-11-26T10:47:50.477Z,19.57
2018-11-26T10:50:20.321Z,22.40
2018-11-26T10:52:50.218Z,21.60
2018-11-26T10:55:20.298Z,20.63
2018-11-26T10:57:49.759Z,20.87
2018-11-26T11:00:23.570Z,19.87
2018-11-26T11:03:11.293Z,18.87
2018-11-26T11:05:39.808Z,19.47
2018-11-26T11:08:08.575Z,19.83
2018-11-26T11:10:37.225Z,18.45
2018-11-26T11:13:06.493Z,18.93
2018-11-26T11:15:35.121Z,19.03
2018-11-26T11:18:03.849Z,18.37
2018-11-26T11:20:32.440Z,19.07
2018-11-26T11:23:00.924Z,19.23
2018-11-26T11:25:29.475Z,19.13
2018-11-26T11:27:58.008Z,18.53
2018-11-26T11:30:28.479Z,19.70
2018-11-26T11:32:57.032Z,19.73
2018-11-26T11:35:25.756Z,17.30
2018-11-26T11:37:55.109Z,18.60
2018-11-26T11:40:25.688Z,18.17
2018-11-26T11:42:54.298Z,17.90
2018-11-26T11:45:23.193Z,19.77
2018-11-26T11:47:51.799Z,17.97
2018-11-26T11:50:21.106Z,20.20
2018-11-26T11:52:49.917Z,19.47
2018-11-26T11:55:23.378Z,19.17
2018-11-26T11:57:52.387Z,18.77
2018-11-26T12:00:31.170Z,20.43
2018-11-26T12:03:01.851Z,21.10
2018-11-26T12:05:30.367Z,19.83
2018-11-26T12:07:59.366Z,20.37
2018-11-26T12:10:41.029Z,20.53
2018-11-26T12:13:27.965Z,19.53
2018-11-26T12:15:56.491Z,20.97
2018-11-26T12:18:25.847Z,21.43
2018-11-26T12:20:54.408Z,20.00
2018-11-26T12:23:22.963Z,21.17
2018-11-26T12:25:51.612Z,23.67
2018-11-26T12:28:20.212Z,21.30
2018-11-26T12:30:48.733Z,20.50
2018-11-26T12:33:17.303Z,19.37
2018-11-26T12:35:45.839Z,21.40
2018-11-26T12:38:14.385Z,19.40
2018-11-26T12:40:43.170Z,19.93
2018-11-26T12:43:11.740Z,20.53
2018-11-26T12:45:40.270Z,20.63
2018-11-26T12:48:08.798Z,20.27
2018-11-26T12:50:37.727Z,20.60
2018-11-26T12:53:06.351Z,19.57
2018-11-26T12:55:37.164Z,20.60
2018-11-26T12:58:08.457Z,20.47
2018-11-26T13:00:38.051Z,20.77
2018-11-26T13:03:11.000Z,21.33
2018-11-26T13:05:39.576Z,21.40
2018-11-26T13:08:08.604Z,21.17
2018-11-26T13:10:37.711Z,20.37
2018-11-26T13:13:07.533Z,20.63
2018-11-26T13:15:36.114Z,20.40
2018-11-26T13:18:04.855Z,19.87
2018-11-26T13:20:33.374Z,20.10
2018-11-26T13:23:01.903Z,20.57
2018-11-26T13:25:32.401Z,20.07
2018-11-26T13:28:02.058Z,20.67
2018-11-26T13:30:31.963Z,21.67
2018-11-26T13:33:02.592Z,20.03
2018-11-26T13:35:31.238Z,20.67
2018-11-26T13:37:59.900Z,22.27
2018-11-26T13:40:28.297Z,21.13
2018-11-26T13:42:56.788Z,20.33
2018-11-26T13:45:30.975Z,20.50
2018-11-26T13:47:59.520Z,20.83
2018-11-26T13:50:31.667Z,20.20
2018-11-26T13:53:00.248Z,22.17
2018-11-26T13:55:28.735Z,22.10
2018-11-26T13:57:57.334Z,22.27
2018-11-26T14:00:25.883Z,22.33
2018-11-26T14:02:54.375Z,22.70
2018-11-26T14:05:22.881Z,21.47
2018-11-26T14:07:51.445Z,22.23
2018-11-26T14:10:21.955Z,21.27
2018-11-26T14:13:00.967Z,22.20
2018-11-26T14:15:29.494Z,21.97
2018-11-26T14:17:57.998Z,21.97
2018-11-26T14:20:26.594Z,22.17
2018-11-26T14:22:55.084Z,22.17
2018-11-26T14:25:23.639Z,20.90
2018-11-26T14:27:52.252Z,21.97
2018-11-26T14:30:23.545Z,21.33
2018-11-26T14:32:52.263Z,22.50
2018-11-26T14:35:20.967Z,20.73
2018-11-26T14:37:50.777Z,21.47
2018-11-26T14:40:27.978Z,20.63
2018-11-26T14:42:56.507Z,21.73
2018-11-26T14:45:25.202Z,21.80
2018-11-26T14:47:53.747Z,21.10
2018-11-26T14:50:22.977Z,23.47
2018-11-26T14:52:51.607Z,21.80
2018-11-26T14:55:27.332Z,20.60
2018-11-26T14:57:56.008Z,21.13
2018-11-26T15:00:24.557Z,22.77
2018-11-26T15:02:53.427Z,20.93
2018-11-26T15:05:21.952Z,22.60
2018-11-26T15:07:50.512Z,23.00
2018-11-26T15:10:20.503Z,21.03
2018-11-26T15:12:49.110Z,21.43
2018-11-26T15:15:20.533Z,22.40
2018-11-26T15:17:49.167Z,21.97
2018-11-26T15:20:27.764Z,21.57
2018-11-26T15:22:57.628Z,22.80
2018-11-26T15:25:30.006Z,24.67
2018-11-26T15:28:04.674Z,24.00
2018-11-26T15:30:33.149Z,21.77
2018-11-26T15:33:01.986Z,23.80
2018-11-26T15:35:30.491Z,24.10
2018-11-26T15:37:58.916Z,25.10
2018-11-26T15:40:27.430Z,25.53
2018-11-26T15:42:56.277Z,25.40
2018-11-26T15:45:25.863Z,23.53
2018-11-26T15:47:55.603Z,23.57
2018-11-26T15:50:24.043Z,24.67
2018-11-26T15:52:52.479Z,23.47
2018-11-26T15:55:21.644Z,24.40
2018-11-26T15:57:50.199Z,24.10
2018-11-26T16:00:23.707Z,25.43
2018-11-26T16:02:52.386Z,24.30
2018-11-26T16:05:24.121Z,23.57
2018-11-26T16:07:53.197Z,24.70
2018-11-26T16:10:21.643Z,25.23
2018-11-26T16:12:52.714Z,25.60
2018-11-26T16:15:23.894Z,24.83
2018-11-26T16:17:52.870Z,24.80
2018-11-26T16:20:23.058Z,25.03
2018-11-26T16:22:51.575Z,26.67
2018-11-26T16:25:21.591Z,25.13
2018-11-26T16:27:50.196Z,25.90
2018-11-26T16:30:19.198Z,26.87
2018-11-26T16:32:49.327Z,27.57
2018-11-26T16:35:22.995Z,25.37
2018-11-26T16:37:51.754Z,27.27
2018-11-26T16:40:20.678Z,26.73
2018-11-26T16:42:49.869Z,26.40
2018-11-26T16:45:23.008Z,45.63
2018-11-26T16:47:52.592Z,26.73
2018-11-26T16:50:22.594Z,28.50
2018-11-26T16:52:51.782Z,26.83
2018-11-26T16:55:19.784Z,27.37
2018-11-26T16:57:49.454Z,28.70
2018-11-26T17:00:22.113Z,27.43
2018-11-26T17:02:57.446Z,29.10
2018-11-26T17:05:31.652Z,26.93
2018-11-26T17:08:00.218Z,27.73
2018-11-26T17:10:28.728Z,28.70
2018-11-26T17:12:57.732Z,29.00
2018-11-26T17:15:26.967Z,28.83
2018-11-26T17:17:57.084Z,32.70
2018-11-26T17:20:25.716Z,29.73
2018-11-26T17:22:54.421Z,30.33
2018-11-26T17:25:23.059Z,29.10
2018-11-26T17:27:51.781Z,29.10
2018-11-26T17:30:22.890Z,28.90
2018-11-26T17:32:53.575Z,28.53
2018-11-26T17:35:22.191Z,33.83
2018-11-26T17:37:51.411Z,29.37
2018-11-26T17:40:21.350Z,29.70
2018-11-26T17:42:50.347Z,31.30
2018-11-26T17:45:20.068Z,32.13
2018-11-26T17:47:52.988Z,31.33
2018-11-26T17:50:32.678Z,30.70
2018-11-26T17:53:02.004Z,31.37
2018-11-26T17:55:32.952Z,31.37
2018-11-26T17:58:01.638Z,30.23
2018-11-26T18:00:32.749Z,30.77
2018-11-26T18:03:01.351Z,30.23
2018-11-26T18:05:31.101Z,31.00
2018-11-26T18:08:02.941Z,31.87
2018-11-26T18:10:31.525Z,31.37
2018-11-26T18:13:00.360Z,31.00
2018-11-26T18:15:29.150Z,30.23
2018-11-26T18:17:58.193Z,31.53
2018-11-26T18:20:26.838Z,32.23
2018-11-26T18:22:57.009Z,31.00
2018-11-26T18:25:25.889Z,31.17
2018-11-26T18:27:57.456Z,29.73
2018-11-26T18:30:37.623Z,30.40
2018-11-26T18:33:06.477Z,31.80
2018-11-26T18:35:35.353Z,32.07
2018-11-26T18:38:30.686Z,32.93
2018-11-26T19:05:18.861Z,31.73
2018-11-26T19:07:48.445Z,33.13
2018-11-26T19:10:36.802Z,32.30
2018-11-26T19:38:08.756Z,29.43
2018-11-26T19:40:38.951Z,30.63
2018-11-26T19:43:08.233Z,31.90
2018-11-26T19:45:37.259Z,29.97
2018-11-26T19:48:06.941Z,31.67
2018-11-26T19:50:35.672Z,31.97
2018-11-26T19:53:05.207Z,31.87
2018-11-26T19:55:34.330Z,32.40
2018-11-26T19:58:02.944Z,33.70
2018-11-26T20:00:31.582Z,33.20
2018-11-26T20:03:09.550Z,32.90
2018-11-26T20:05:48.923Z,32.00
2018-11-26T20:08:17.869Z,32.73
2018-11-26T20:10:46.530Z,32.27
2018-11-26T20:13:15.122Z,33.13
2018-11-26T20:15:43.927Z,31.20
2018-11-26T20:18:12.663Z,31.73
2018-11-26T20:20:41.344Z,33.07
2018-11-26T20:23:10.137Z,30.63
2018-11-26T20:25:38.692Z,33.03
2018-11-26T20:28:07.407Z,30.93
2018-11-26T20:30:36.014Z,33.90
2018-11-26T20:33:04.589Z,31.23
2018-11-26T20:35:33.295Z,33.07
2018-11-26T20:38:01.897Z,32.60
2018-11-26T20:40:30.491Z,33.10
2018-11-26T20:42:59.161Z,33.80
2018-11-26T20:45:27.715Z,33.87
2018-11-26T20:47:56.245Z,33.93
2018-11-26T20:50:26.937Z,32.00
2018-11-26T20:52:55.484Z,34.33
2018-11-26T20:55:25.151Z,32.63
2018-11-26T20:57:55.721Z,31.67
2018-11-26T21:00:25.561Z,33.23
2018-11-26T21:03:12.928Z,33.03
2018-11-26T21:05:42.707Z,34.47
2018-11-26T21:08:11.287Z,33.37
2018-11-26T21:10:39.840Z,32.27
2018-11-26T21:13:09.212Z,31.47
2018-11-26T21:15:37.851Z,33.67
2018-11-26T21:18:09.993Z,32.97
2018-11-26T21:20:43.117Z,32.57
2018-11-26T21:23:14.209Z,32.67
2018-11-26T21:25:42.124Z,31.57
2018-11-26T21:28:21.916Z,31.07
2018-11-26T21:30:55.614Z,31.97
2018-11-26T21:33:31.727Z,34.43
2018-11-26T21:39:21.728Z,34.87
2018-11-26T21:42:13.400Z,34.20
2018-11-26T21:44:42.118Z,32.57
2018-11-26T21:47:11.093Z,33.77
2018-11-26T21:49:41.654Z,34.90
2018-11-26T21:55:06.227Z,34.07
2018-11-26T21:57:36.255Z,33.67
2018-11-26T22:00:11.818Z,33.20
2018-11-26T22:02:40.305Z,32.17
2018-11-26T22:05:10.836Z,31.73
2018-11-26T22:07:39.480Z,31.43
2018-11-26T22:10:15.972Z,31.50
2018-11-26T22:12:51.142Z,32.60
2018-11-26T22:15:19.847Z,31.17
2018-11-26T22:17:48.841Z,33.33
2018-11-26T22:20:19.728Z,31.67
2018-11-26T22:22:48.523Z,31.83
2018-11-26T22:25:17.231Z,31.77
2018-11-26T22:27:46.251Z,32.60
2018-11-26T22:30:20.929Z,30.47
2018-11-26T22:32:49.575Z,32.30
2018-11-26T22:35:18.185Z,33.67
2018-11-26T22:37:46.806Z,31.93
2018-11-26T22:40:17.205Z,34.47
2018-11-26T22:42:45.871Z,33.27
2018-11-26T22:45:18.596Z,31.50
2018-11-26T22:47:51.533Z,32.90
2018-11-26T22:50:20.114Z,33.03
2018-11-26T22:52:48.709Z,31.80
2018-11-26T22:55:17.213Z,33.63
2018-11-26T22:57:46.009Z,31.63
2018-11-26T23:00:24.798Z,32.40
2018-11-26T23:02:55.010Z,32.80
2018-11-26T23:05:23.576Z,32.77
2018-11-26T23:07:52.083Z,32.07
2018-11-26T23:10:20.673Z,33.00
2018-11-26T23:12:49.349Z,31.30
2018-11-26T23:15:18.366Z,32.10
2018-11-26T23:17:47.604Z,31.93
2018-11-26T23:20:17.112Z,31.47
2018-11-26T23:22:45.745Z,32.17
2018-11-26T23:25:16.250Z,30.90
2018-11-26T23:27:44.864Z,31.33
2018-11-26T23:30:29.401Z,33.63
2018-11-26T23:33:00.155Z,31.50
2018-11-26T23:35:29.037Z,32.67
2018-11-26T23:37:57.213Z,32.53
2018-11-26T23:40:25.808Z,32.07
2018-11-26T23:42:54.461Z,30.60
2018-11-26T23:45:29.836Z,30.87
2018-11-26T23:47:58.791Z,31.67
2018-11-26T23:50:28.450Z,32.70
2018-11-26T23:53:07.911Z,30.63
2018-11-26T23:55:36.816Z,32.53
2018-11-26T23:58:05.734Z,30.43
